Grand Canyon National Park, AZ

18:07 MST le 23 novembre 2014 (GMT -0700)
KAZGRAND3 | Change Station
CLOSE
Current Station
Stations météorologiques personnelles
Location: Grand Canyon, AZ
Altitude: 6991 ft
Stations météo à proximité

Alt. 6991 ft 36.05 °N, 112.12 °W | Updated 9 seconds ago

Ciel dégagé
Ciel dégagé
35.8 ° F
Paraît 36 ° F
N
0.0
Vent Variable Vent de ENE
Gusts 3.0 mph

Aujourd'hui
Haut(e) -- | Bas -- ° F
--% Risque de précip.
Hier
Haut(e) -- | Bas -- ° F
Precip. -- pouce
7:13 AM 5:16 PM
Lune montante, 3% visible
Pression 30.17 pouce
Visibilité 10.0 Miles terrestres
Nuages Ciel dégagé
Refroidissement éolien 36 ° F
Point de rosée -9 ° F
Humidité 14%
Précipitations 0.00 pouce
Profondeur de la couche neigeuse Non disponible.
UV 0 sur 12
Pollen 1.60 sur 12
Qualité de l'air Non disponible.
Flu Activity Non disponible.
METAR KGCN 240054Z 32003KT 10SM CLR M01/M23 A3018 RMK AO2 SLP215 T10061233

More Conditions Fewer Conditions

Pression 30.17 pouce
Visibilité 10.0 Miles terrestres
Nuages Ciel dégagé
Refroidissement éolien 36 ° F
Point de rosée -9 ° F
Humidité 14%
Précipitations 0.00 pouce
Profondeur de la couche neigeuse Non disponible.
UV 0 sur 12
Pollen 1.60 sur 12
Qualité de l'air Non disponible.
Flu Activity Non disponible.
METAR KGCN 240054Z 32003KT 10SM CLR M01/M23 A3018 RMK AO2 SLP215 T10061233

More Conditions Fewer Conditions

10-Day Weather Forecast

Almanac

Astronomie

Nov. 23, 2014 Lever Coucher
Temps réel
Crépuscule civil
Crépuscule nautique
Crépuscule astronomique
Lune
Durée de lumière visible
Longueur du jour
Tomorrow will be .
, % of the Moon is Illuminated

Extrêmes aujourd'hui

State Highs State Lows

Community

WunderPhotos

Upload Photos

1,773,232 Photos téléchargées !

WunderBlogs® & News

Nearby

Qualité de l'air

  Qualité de l'air Indice de la qualité de l'air Polluant
Not available.

Épaisseur de neige

Station Depth Altitude

Activité sismique

Ville Distance Mag. Time & Date
Minimum magnitude displayed is 2.5.

Températures des eaux côtières

Lieu Température

Stations météo à proximité